ADDS METAR Data INFO
IDs: Format: Raw Decoded Include TAF

Data at: 0716 UTC 24 Jun 2018

KUKI 240656Z AUTO 00000KT 10SM CLR 24/11 A2976 RMK AO2 SLP069 T02390111
KUKI 240556Z AUTO 00000KT 10SM CLR 24/11 A2976 RMK AO2 SLP068 T02440106 10383 20244 53012
KUKI 240456Z AUTO 00000KT 10SM CLR 27/10 A2975 RMK AO2 SLP064 T02720100
KUKI 240356Z AUTO 00000KT 10SM CLR 29/09 A2973 RMK AO2 SLP060 T02940094
KUKI 240256Z AUTO 36005KT 10SM CLR 34/08 A2972 RMK AO2 SLP056 T03440078 55003
KUKI 240156Z AUTO 34007KT 300V360 10SM CLR 37/06 A2971 RMK AO2 SLP051 T03670061
KUKI 240056Z AUTO 29005KT 10SM CLR 38/04 A2972 RMK AO2 SLP053 T03780044
KUKI 232356Z AUTO 33008KT 10SM CLR 38/05 A2973 RMK AO2 SLP059 T03830050 10383 20294 58013
KUKI 232256Z AUTO 31007KT 10SM CLR 38/06 A2975 RMK AO2 SLP065 T03780056
KUKI 232156Z AUTO 34008KT 10SM CLR 37/07 A2976 RMK AO2 SLP069 T03720067
KUKI 232056Z AUTO VRB03KT 10SM CLR 36/08 A2977 RMK AO2 SLP072 T03610083 58018
KUKI 231956Z AUTO VRB03KT 10SM CLR 34/08 A2979 RMK AO2 SLP079 T03390083
KUKI 231856Z AUTO 07004KT 10SM CLR 32/08 A2981 RMK AO2 SLP087 T03170083
KUKI 231756Z AUTO 06004KT 10SM CLR 29/08 A2983 RMK AO2 SLP092 T02940078 10294 20139 58011
KUKI 231656Z AUTO 00000KT 10SM CLR 26/09 A2984 RMK AO2 SLP096 T02610089
KUKI 231556Z AUTO 00000KT 10SM CLR 22/09 A2986 RMK AO2 SLP101 T02220094
KUKI 231456Z AUTO 00000KT 10SM CLR 19/09 A2986 RMK AO2 SLP103 T01890089 50002
KUKI 231356Z AUTO 00000KT 10SM CLR 17/08 A2986 RMK AO2 SLP104 T01670078
KUKI 231256Z AUTO 00000KT 10SM CLR 16/08 A2986 RMK AO2 SLP103 T01560078
KUKI 231156Z AUTO 00000KT 10SM CLR 15/08 A2985 RMK AO2 SLP101 T01500083 10228 20150 55003
KUKI 231056Z AUTO 00000KT 10SM CLR 17/07 A2985 RMK AO2 SLP099 T01720072
KUKI 230956Z AUTO 00000KT 10SM CLR 18/07 A2986 RMK AO2 SLP101 T01830067
KUKI 230856Z AUTO 00000KT 10SM CLR 19/07 A2987 RMK AO2 SLP103 T01890067 57005
KUKI 230756Z AUTO 00000KT 10SM CLR 19/07 A2987 RMK AO2 SLP106 T01940067 403670117
KUKI 230656Z AUTO 20003KT 10SM CLR 21/07 A2987 RMK AO2 SLP108 T02060067
KUKI 230556Z AUTO 00000KT 10SM CLR 23/06 A2988 RMK AO2 SLP109 T02280061 10356 20222 53008
KUKI 230456Z AUTO 03005KT 10SM CLR 25/06 A2987 RMK AO2 SLP105 T02500056
KUKI 230356Z AUTO 01007KT 10SM CLR 27/05 A2985 RMK AO2 SLP101 T02720050
KUKI 230256Z AUTO 34008KT 10SM CLR 29/04 A2985 RMK AO2 SLP102 T02890044 53002
KUKI 230156Z AUTO 01008KT 320V050 10SM CLR 33/03 A2985 RMK AO2 SLP100 T03280033
KUKI 230056Z AUTO VRB04KT 10SM CLR 34/04 A2984 RMK AO2 SLP097 T03440044
KUKI 222356Z AUTO 30008G16KT 260V320 10SM CLR 35/05 A2985 RMK AO2 SLP099 T03500050 10367 20278 56015
KUKI 222256Z AUTO 30009KT 10SM CLR 36/05 A2986 RMK AO2 SLP103 T03610050
KUKI 222156Z AUTO 35009KT 10SM CLR 37/04 A2987 RMK AO2 SLP108 T03670044
KUKI 222056Z AUTO 33006KT 10SM CLR 36/07 A2989 RMK AO2 SLP114 T03560072 58022
KUKI 221956Z AUTO 10005KT 10SM CLR 33/08 A2992 RMK AO2 SLP123 T03280083